Time;durP1;ratioP1;P1;durP2;ratioP2;P2;SDS_P1;SDS_P2;PMS_P1;PMS_P2;Temp;Humidity;BMP_temperature;BMP_pressure;BME280_temperature;BME280_humidity;BME280_pressure;Samples;Min_cycle;Max_cycle;Signal;HPM_P1;HPM_P2
2024/01/08 05:31:16;;;;;;;;;20.50;18.00;;;;;9.83;33.39;102145.75;1427798;26;46223;-78
2024/01/08 05:33:41;;;;;;;;;15.00;15.00;;;;;10.02;33.27;102183.78;5033476;28;45496;-78
2024/01/08 05:36:07;;;;;;;;;17.00;17.00;;;;;10.09;33.83;102185.41;5036038;28;55406;-77
2024/01/08 05:38:32;;;;;;;;;20.00;20.00;;;;;10.15;33.95;102174.56;5053919;28;46383;-78
2024/01/08 05:40:58;;;;;;;;;23.50;20.00;;;;;10.04;33.98;102160.50;5053852;28;55302;-77
2024/01/08 05:43:23;;;;;;;;;12.50;12.50;;;;;10.23;34.55;102192.28;5054073;28;45355;-78
2024/01/08 05:45:49;;;;;;;;;21.50;17.00;;;;;10.22;34.36;102193.19;5053801;28;58914;-77
2024/01/08 05:48:14;;;;;;;;;22.50;20.75;;;;;10.02;33.90;102146.28;5053970;28;45513;-77
2024/01/08 05:50:40;;;;;;;;;13.50;13.50;;;;;10.05;34.25;102162.25;5054252;28;45521;-78
2024/01/08 05:53:06;;;;;;;;;16.75;16.75;;;;;10.12;34.50;102172.81;5054172;28;45257;-78
2024/01/08 05:55:31;;;;;;;;;16.25;15.25;;;;;9.97;33.89;102149.03;5054264;28;45313;-79
2024/01/08 05:57:56;;;;;;;;;19.25;18.00;;;;;10.11;33.85;102164.84;5053907;28;45474;-79
2024/01/08 06:00:22;;;;;;;;;19.75;17.50;;;;;10.12;33.76;102170.13;5051840;28;60331;-78
2024/01/08 06:02:47;;;;;;;;;23.50;19.25;;;;;10.19;33.56;102185.22;5054040;28;45259;-79
2024/01/08 06:05:13;;;;;;;;;18.50;18.25;;;;;9.86;33.04;102148.41;5054226;28;45506;-78
2024/01/08 06:07:39;;;;;;;;;14.25;14.25;;;;;10.13;33.23;102197.81;5053886;28;46039;-78
2024/01/08 06:10:04;;;;;;;;;20.75;19.00;;;;;10.15;33.15;102196.00;5053840;28;45491;-77
2024/01/08 06:12:30;;;;;;;;;19.50;17.50;;;;;10.09;33.02;102190.78;5054300;28;45497;-77
2024/01/08 06:14:55;;;;;;;;;20.50;14.75;;;;;10.02;32.62;102190.03;5053486;28;45576;-78
2024/01/08 06:17:21;;;;;;;;;20.00;17.75;;;;;9.81;32.90;102163.66;5035475;28;48139;-76
2024/01/08 06:19:47;;;;;;;;;22.50;17.50;;;;;9.81;32.51;102180.63;5054064;28;45436;-77
2024/01/08 06:22:12;;;;;;;;;19.25;18.25;;;;;9.90;32.57;102197.41;5054328;28;45386;-77
2024/01/08 06:24:37;;;;;;;;;17.00;17.00;;;;;9.89;33.13;102199.19;5053779;28;49840;-82
2024/01/08 06:27:03;;;;;;;;;22.50;17.00;;;;;9.79;32.76;102194.94;5053769;28;45545;-75
2024/01/08 06:29:28;;;;;;;;;18.75;16.00;;;;;9.75;33.08;102179.84;5053967;28;45314;-79
2024/01/08 06:31:54;;;;;;;;;15.50;14.00;;;;;9.63;32.75;102161.34;5053594;28;45280;-80
2024/01/08 06:34:19;;;;;;;;;17.50;15.00;;;;;9.79;33.24;102194.94;5053622;28;45601;-76
2024/01/08 06:36:44;;;;;;;;;16.25;12.50;;;;;9.79;33.07;102197.63;5054181;28;46128;-77
2024/01/08 06:39:09;;;;;;;;;22.50;18.25;;;;;9.83;33.14;102204.69;5053819;28;45225;-75
2024/01/08 06:41:36;;;;;;;;;22.50;17.75;;;;;9.80;33.41;102205.63;5053395;28;45406;-77
2024/01/08 06:44:02;;;;;;;;;23.50;21.00;;;;;9.85;33.51;102208.22;5054064;28;45573;-73
2024/01/08 06:46:27;;;;;;;;;18.75;15.75;;;;;9.91;33.95;102213.47;5058279;28;45402;-80
2024/01/08 06:48:52;;;;;;;;;16.50;16.00;;;;;9.63;33.83;102180.97;5052473;28;45531;-78
2024/01/08 06:51:19;;;;;;;;;20.00;17.75;;;;;9.82;33.87;102209.16;5053481;28;51838;-81
2024/01/08 06:53:45;;;;;;;;;23.00;19.00;;;;;9.34;33.65;102117.28;5035761;28;46444;-79
2024/01/08 06:56:11;;;;;;;;;21.50;19.00;;;;;9.55;34.14;102148.09;5055642;28;45413;-81
2024/01/08 06:58:36;;;;;;;;;15.75;13.00;;;;;9.90;34.02;102192.06;5039461;28;45395;-78
2024/01/08 07:01:02;;;;;;;;;23.25;17.75;;;;;10.01;33.60;102207.00;5056659;28;45450;-77
2024/01/08 07:03:27;;;;;;;;;20.00;16.50;;;;;10.03;33.59;102207.88;5057202;28;45397;-76
2024/01/08 07:05:53;;;;;;;;;19.50;17.00;;;;;10.06;33.58;102209.59;5041408;28;46358;-78
2024/01/08 07:08:18;;;;;;;;;16.50;16.50;;;;;10.03;33.83;102191.78;5058244;28;45382;-80
2024/01/08 07:10:44;;;;;;;;;24.00;22.25;;;;;10.07;33.64;102198.84;5059467;28;45825;-76
2024/01/08 07:13:09;;;;;;;;;25.00;21.75;;;;;10.13;33.57;102201.38;5056654;28;45411;-76
2024/01/08 07:15:40;;;;;;;;;23.50;20.25;;;;;10.13;33.14;102206.75;5054508;28;46030;-76
2024/01/08 07:18:08;;;;;;;;;18.00;18.00;;;;;10.12;33.29;102196.94;5056490;28;45433;-77
2024/01/08 07:20:34;;;;;;;;;17.25;17.00;;;;;10.10;33.72;102195.22;5035527;28;45331;-77
2024/01/08 07:22:59;;;;;;;;;21.50;20.25;;;;;10.11;33.60;102218.44;5047310;28;46180;-78
2024/01/08 07:25:25;;;;;;;;;18.50;17.50;;;;;10.12;33.68;102213.00;5036243;28;57096;-76
2024/01/08 07:27:50;;;;;;;;;18.50;17.00;;;;;10.11;33.69;102205.03;5067340;28;54645;-77
2024/01/08 07:30:17;;;;;;;;;19.50;19.50;;;;;10.07;33.29;102206.88;5051749;28;45165;-73
2024/01/08 07:32:42;;;;;;;;;17.00;17.00;;;;;10.06;33.54;102205.09;5046627;28;45418;-74
2024/01/08 07:35:08;;;;;;;;;28.25;24.75;;;;;9.88;33.35;102176.00;5050789;28;45461;-75
2024/01/08 07:37:33;;;;;;;;;24.50;19.25;;;;;9.98;33.95;102199.03;5056136;28;45376;-75
2024/01/08 07:39:58;;;;;;;;;20.25;18.75;;;;;9.86;33.04;102191.25;5055432;28;54655;-75
2024/01/08 07:42:24;;;;;;;;;24.00;22.50;;;;;9.92;33.84;102209.88;5055720;28;45517;-74
2024/01/08 07:44:49;;;;;;;;;26.75;24.00;;;;;9.83;33.86;102213.63;5055474;28;46210;-73
2024/01/08 07:47:14;;;;;;;;;21.00;21.00;;;;;9.84;33.89;102203.78;5055620;28;50791;-75
2024/01/08 07:49:40;;;;;;;;;22.00;20.75;;;;;9.78;34.32;102206.59;5042100;28;45470;-74
2024/01/08 07:52:05;;;;;;;;;19.50;15.75;;;;;9.79;34.25;102208.31;5055859;28;54625;-75
2024/01/08 07:54:31;;;;;;;;;21.00;19.25;;;;;9.71;33.78;102192.41;5053084;28;45529;-76
2024/01/08 07:56:56;;;;;;;;;24.25;23.75;;;;;9.81;34.10;102209.19;5055453;28;47669;-75
2024/01/08 07:59:21;;;;;;;;;20.50;16.75;;;;;9.83;34.10;102207.38;5055013;28;51032;-77
2024/01/08 08:01:47;;;;;;;;;23.50;23.25;;;;;9.77;33.89;102203.03;5020364;28;45524;-74
2024/01/08 08:04:13;;;;;;;;;21.50;20.00;;;;;9.81;34.17;102218.09;5055164;28;46332;-76
2024/01/08 08:06:38;;;;;;;;;27.00;23.00;;;;;9.72;34.76;102204.91;5054228;28;45335;-77
2024/01/08 08:09:03;;;;;;;;;25.25;20.50;;;;;9.83;34.31;102223.44;5056121;28;45456;-74
2024/01/08 08:11:29;;;;;;;;;23.75;21.50;;;;;9.80;34.92;102216.34;5055374;28;48527;-76
2024/01/08 08:13:54;;;;;;;;;22.50;19.25;;;;;9.63;34.34;102185.44;5036119;28;52555;-75
2024/01/08 08:16:20;;;;;;;;;24.75;24.75;;;;;9.81;34.58;102219.91;5054512;28;52701;-75
2024/01/08 08:18:46;;;;;;;;;27.00;23.00;;;;;9.79;34.03;102208.31;5034505;28;45513;-75
2024/01/08 08:21:11;;;;;;;;;18.50;16.50;;;;;9.87;34.42;102220.66;5053899;28;45505;-76
2024/01/08 08:23:36;;;;;;;;;20.50;18.75;;;;;9.86;33.97;102226.97;5054219;28;46034;-77
2024/01/08 08:26:02;;;;;;;;;19.00;17.00;;;;;9.88;34.32;102221.53;5055051;28;45303;-75
2024/01/08 08:28:28;;;;;;;;;24.00;20.00;;;;;9.89;34.26;102215.28;5054590;28;45422;-74
2024/01/08 08:30:54;;;;;;;;;24.75;21.50;;;;;10.05;34.50;102235.50;5054710;28;45544;-77
2024/01/08 08:33:20;;;;;;;;;21.50;19.25;;;;;9.99;35.01;102238.31;5053129;28;45442;-74
2024/01/08 08:35:45;;;;;;;;;20.25;18.25;;;;;9.95;35.08;102241.97;5054232;28;45457;-75
2024/01/08 08:38:11;;;;;;;;;23.75;16.25;;;;;9.90;34.88;102233.13;5036768;28;45307;-76
2024/01/08 08:40:36;;;;;;;;;19.50;16.50;;;;;9.86;34.67;102229.63;5053534;28;45612;-74
2024/01/08 08:43:01;;;;;;;;;20.50;20.50;;;;;9.78;34.01;102225.34;5054472;28;45685;-77
2024/01/08 08:45:28;;;;;;;;;22.75;21.00;;;;;9.85;34.22;102238.59;5054871;28;45383;-72
2024/01/08 08:47:53;;;;;;;;;23.25;20.00;;;;;9.90;34.38;102238.47;5053964;28;45445;-74
2024/01/08 08:50:19;;;;;;;;;22.25;20.50;;;;;9.80;34.03;102216.34;5053949;28;45626;-74
2024/01/08 08:52:44;;;;;;;;;23.50;23.50;;;;;9.95;34.71;102241.09;5055556;28;45828;-75
2024/01/08 08:55:10;;;;;;;;;28.00;24.00;;;;;9.95;35.37;102247.31;5052791;28;45540;-75
2024/01/08 08:57:36;;;;;;;;;27.50;24.00;;;;;9.92;34.86;102251.84;5036009;28;45458;-76
2024/01/08 09:00:02;;;;;;;;;27.00;20.25;;;;;9.97;34.52;102248.16;5054786;28;45513;-76
2024/01/08 09:02:27;;;;;;;;;19.00;19.00;;;;;10.00;34.88;102255.25;5054373;28;45359;-75
2024/01/08 09:04:53;;;;;;;;;23.75;20.25;;;;;9.85;35.75;102229.66;5054035;28;50724;-75
2024/01/08 09:07:22;;;;;;;;;24.00;22.75;;;;;9.99;36.18;102256.16;5054923;28;45489;-75
2024/01/08 09:09:48;;;;;;;;;29.25;27.25;;;;;9.98;36.09;102265.13;5056119;28;45535;-75
2024/01/08 09:12:13;;;;;;;;;22.00;22.00;;;;;9.97;36.33;102260.66;5039196;28;46657;-76
2024/01/08 09:14:39;;;;;;;;;17.00;17.00;;;;;9.85;36.50;102254.66;5065575;28;45403;-74
2024/01/08 09:17:04;;;;;;;;;24.00;24.00;;;;;9.94;36.32;102258.97;5056779;28;54609;-76
2024/01/08 09:19:29;;;;;;;;;25.50;20.00;;;;;9.98;36.09;102263.31;5059756;28;45327;-76
2024/01/08 09:21:55;;;;;;;;;31.25;24.00;;;;;10.01;36.21;102260.59;5057948;28;46045;-73
2024/01/08 09:24:20;;;;;;;;;23.00;22.25;;;;;10.05;35.88;102259.59;5057626;28;53791;-76
2024/01/08 09:26:45;;;;;;;;;28.75;23.75;;;;;9.95;35.49;102260.72;5056969;28;45556;-76
2024/01/08 09:29:12;;;;;;;;;20.50;19.50;;;;;10.07;36.10;102271.19;5056727;28;45505;-76
2024/01/08 09:31:38;;;;;;;;;26.25;26.25;;;;;9.84;35.82;102223.41;5054446;28;45364;-74
2024/01/08 09:34:05;;;;;;;;;27.00;26.50;;;;;10.07;36.24;102265.81;5054211;28;45340;-76
2024/01/08 09:36:30;;;;;;;;;24.75;23.00;;;;;10.12;36.36;102263.06;5054956;28;45515;-78
2024/01/08 09:38:56;;;;;;;;;21.75;21.75;;;;;9.86;36.48;102215.34;5036432;28;46398;-77
2024/01/08 09:41:21;;;;;;;;;26.50;24.25;;;;;10.05;36.39;102256.03;5054156;28;45645;-77
2024/01/08 09:43:47;;;;;;;;;24.25;22.50;;;;;10.07;36.24;102271.19;5054266;28;45440;-77
2024/01/08 09:46:18;;;;;;;;;26.75;23.00;;;;;10.08;36.88;102272.06;5053033;28;45481;-77
2024/01/08 09:48:45;;;;;;;;;24.25;19.75;;;;;10.12;36.53;102274.66;5054371;28;45329;-75
2024/01/08 09:51:11;;;;;;;;;28.75;21.25;;;;;10.18;36.81;102282.63;5053932;28;45684;-77
2024/01/08 09:53:36;;;;;;;;;24.75;24.75;;;;;10.15;37.38;102274.59;5054113;28;45417;-76
2024/01/08 09:56:03;;;;;;;;;23.50;21.75;;;;;10.23;37.35;102285.19;5054139;28;53556;-78
2024/01/08 09:58:28;;;;;;;;;20.75;20.75;;;;;10.27;36.69;102289.59;5035926;28;47756;-77
2024/01/08 10:00:54;;;;;;;;;26.75;22.75;;;;;10.21;36.56;102277.19;5053341;28;46611;-75
2024/01/08 10:03:20;;;;;;;;;21.75;19.75;;;;;10.21;36.54;102284.34;5053962;28;45454;-76
2024/01/08 10:05:45;;;;;;;;;22.00;20.75;;;;;10.23;36.79;102288.75;5054037;28;45469;-75
2024/01/08 10:08:11;;;;;;;;;21.00;21.00;;;;;10.32;37.31;102287.69;5053899;28;45212;-74
2024/01/08 10:10:36;;;;;;;;;20.75;20.50;;;;;10.33;37.09;102284.09;5052209;28;45994;-75
2024/01/08 10:13:02;;;;;;;;;25.50;23.75;;;;;10.35;37.08;102294.81;5053369;28;45324;-74
2024/01/08 10:15:28;;;;;;;;;23.25;23.25;;;;;10.38;37.08;102282.19;5053478;28;45464;-75
2024/01/08 10:17:55;;;;;;;;;25.00;25.00;;;;;10.42;36.82;102291.06;5047021;28;45376;-74
2024/01/08 10:20:21;;;;;;;;;21.75;19.50;;;;;10.38;36.94;102273.31;5047098;28;46144;-75
2024/01/08 10:22:47;;;;;;;;;30.25;24.50;;;;;10.41;37.21;102284.81;5053767;28;45391;-72
2024/01/08 10:25:22;;;;;;;;;19.50;14.50;;;;;10.37;37.57;102279.56;5053865;28;45528;-76
2024/01/08 10:27:48;;;;;;;;;24.75;20.50;;;;;10.33;37.96;102264.44;5053887;28;45496;-74
2024/01/08 10:30:13;;;;;;;;;19.50;17.50;;;;;10.41;37.70;102281.25;5052157;28;46190;-75
2024/01/08 10:32:38;;;;;;;;;21.50;17.00;;;;;10.32;37.81;102273.41;5044482;28;53671;-74
2024/01/08 10:35:04;;;;;;;;;28.50;25.00;;;;;10.29;37.81;102276.16;5056799;28;45524;-76
2024/01/08 10:37:29;;;;;;;;;33.75;26.00;;;;;10.23;38.29;102267.31;5057183;28;45249;-75
2024/01/08 10:39:56;;;;;;;;;25.25;21.00;;;;;10.30;38.07;102272.53;5055518;28;46014;-76
2024/01/08 10:42:22;;;;;;;;;22.25;22.00;;;;;10.31;38.13;102274.31;5056724;28;45343;-77
2024/01/08 10:44:47;;;;;;;;;30.75;27.75;;;;;10.31;38.57;102275.19;5038710;28;46035;-77
2024/01/08 10:47:19;;;;;;;;;27.50;24.00;;;;;10.30;38.61;102267.19;5057007;28;45519;-79
2024/01/08 10:49:52;;;;;;;;;21.50;20.25;;;;;10.31;38.82;102267.16;5056798;28;46431;-79
2024/01/08 10:52:26;;;;;;;;;21.50;21.50;;;;;10.31;38.79;102259.13;5056996;28;45436;-75
2024/01/08 10:54:56;;;;;;;;;23.50;21.25;;;;;10.33;38.39;102267.13;5041334;28;45332;-74
2024/01/08 10:57:28;;;;;;;;;21.25;21.25;;;;;10.26;37.74;102258.34;5057224;28;45228;-75
2024/01/08 10:59:56;;;;;;;;;21.25;20.50;;;;;10.26;37.85;102246.75;5056373;28;46376;-77
2024/01/08 11:02:24;;;;;;;;;28.00;23.75;;;;;10.30;37.86;102245.75;5056583;28;45307;-75
2024/01/08 11:04:49;;;;;;;;;20.25;16.50;;;;;10.33;37.72;102253.72;5056369;28;45437;-74
2024/01/08 11:07:15;;;;;;;;;28.50;24.00;;;;;10.32;37.26;102246.59;5055743;28;63567;-74
2024/01/08 11:09:41;;;;;;;;;21.50;20.00;;;;;10.34;37.25;102244.78;5056473;28;45517;-76
2024/01/08 11:12:12;;;;;;;;;21.50;20.00;;;;;10.37;36.25;102250.09;5056540;28;45307;-75
2024/01/08 11:14:41;;;;;;;;;22.50;21.75;;;;;10.30;36.66;102237.69;5056092;28;45467;-74
2024/01/08 11:17:10;;;;;;;;;25.00;24.00;;;;;10.31;36.56;102228.75;5055898;28;45331;-77
2024/01/08 11:19:45;;;;;;;;;22.50;22.50;;;;;10.37;37.25;102229.53;5056427;28;45287;-75
2024/01/08 11:22:11;;;;;;;;;28.50;22.00;;;;;10.48;36.77;102235.50;5056329;28;45335;-74
2024/01/08 11:24:37;;;;;;;;;28.25;24.25;;;;;10.48;37.41;102215.88;5056636;28;45291;-75
2024/01/08 11:27:02;;;;;;;;;25.25;24.75;;;;;10.61;36.79;102244.19;5056380;28;45478;-73
2024/01/08 11:29:28;;;;;;;;;25.00;23.50;;;;;10.51;36.93;102226.53;5056758;28;47203;-74
2024/01/08 11:32:08;;;;;;;;;29.50;25.75;;;;;10.54;36.76;102234.53;5056573;28;51397;-77
2024/01/08 11:34:39;;;;;;;;;29.00;22.75;;;;;10.59;36.55;102225.44;5056519;28;45415;-76
2024/01/08 11:37:30;;;;;;;;;29.75;26.00;;;;;10.50;37.26;102227.44;5056153;28;45344;-74
2024/01/08 11:39:56;;;;;;;;;30.00;25.50;;;;;10.40;37.19;102215.16;5056192;28;46850;-75
2024/01/08 11:42:22;;;;;;;;;20.50;20.50;;;;;10.43;36.83;102224.03;5055793;28;45381;-75
2024/01/08 11:44:49;;;;;;;;;29.50;25.00;;;;;10.50;36.80;102209.56;5055886;28;45292;-77
2024/01/08 11:47:14;;;;;;;;;27.00;24.50;;;;;10.54;37.28;102227.38;5056010;28;46208;-75
2024/01/08 11:49:40;;;;;;;;;24.00;22.25;;;;;10.45;37.21;102210.59;5055875;28;46014;-74
2024/01/08 11:52:08;;;;;;;;;31.75;23.25;;;;;10.43;37.30;102233.88;5056879;28;45377;-76
2024/01/08 11:54:34;;;;;;;;;33.00;30.50;;;;;10.26;37.85;102209.22;5055916;28;45451;-75
2024/01/08 11:57:00;;;;;;;;;27.00;26.00;;;;;10.30;38.52;102217.13;5056567;28;45679;-78
2024/01/08 11:59:35;;;;;;;;;24.25;24.25;;;;;10.41;38.19;102220.47;5056146;28;46503;-76
2024/01/08 12:02:17;;;;;;;;;22.00;19.75;;;;;10.40;38.62;102212.47;5055886;28;45514;-75
2024/01/08 12:04:51;;;;;;;;;25.50;22.50;;;;;10.25;38.42;102189.56;5055290;28;45469;-73
2024/01/08 12:07:16;;;;;;;;;28.50;28.25;;;;;10.41;38.16;102214.25;5055503;28;45327;-75
2024/01/08 12:09:42;;;;;;;;;27.25;22.50;;;;;10.40;37.94;102212.47;5055184;28;46135;-77
2024/01/08 12:12:09;;;;;;;;;28.00;25.75;;;;;10.35;37.06;102203.66;5055337;28;45489;-74
2024/01/08 12:14:36;;;;;;;;;27.75;23.50;;;;;10.30;37.48;102205.53;5055106;28;45473;-74
2024/01/08 12:17:02;;;;;;;;;24.00;21.25;;;;;10.08;38.13;102173.81;5055151;28;45790;-76
2024/01/08 12:19:52;;;;;;;;;26.75;23.00;;;;;10.31;38.22;102207.31;5055442;28;46087;-77
2024/01/08 12:22:19;;;;;;;;;24.00;24.00;;;;;10.38;37.48;102206.28;5055136;28;45423;-77
2024/01/08 12:25:05;;;;;;;;;20.50;18.00;;;;;10.41;37.40;102219.59;5055829;28;45336;-78
2024/01/08 12:27:31;;;;;;;;;27.25;24.50;;;;;10.29;37.94;102193.06;5054614;28;45467;-78
2024/01/08 12:29:57;;;;;;;;;25.00;22.25;;;;;10.37;37.07;102201.84;5055930;28;45458;-76
2024/01/08 12:32:23;;;;;;;;;18.50;17.00;;;;;10.34;37.80;102205.44;5055820;28;45523;-77
2024/01/08 12:34:50;;;;;;;;;25.75;24.75;;;;;10.25;37.35;102197.59;5055796;28;45666;-75
2024/01/08 12:37:22;;;;;;;;;22.50;19.25;;;;;10.31;36.86;102199.25;5037266;28;45528;-77
2024/01/08 12:39:48;;;;;;;;;29.75;22.00;;;;;10.38;36.49;102187.50;5054616;28;45669;-76
2024/01/08 12:42:15;;;;;;;;;17.25;16.25;;;;;10.31;36.24;102184.06;5055071;28;45252;-76
2024/01/08 12:44:43;;;;;;;;;25.00;18.25;;;;;10.46;35.95;102185.53;5055019;28;45439;-76
2024/01/08 12:47:08;;;;;;;;;22.00;21.00;;;;;10.35;35.97;102184.91;5054573;28;45561;-76
2024/01/08 12:49:35;;;;;;;;;17.00;17.00;;;;;10.28;35.90;102159.16;5054655;28;46206;-77
2024/01/08 12:52:01;;;;;;;;;16.50;16.50;;;;;10.37;35.09;102183.94;5055248;28;45473;-74
2024/01/08 12:54:30;;;;;;;;;17.25;17.25;;;;;10.44;34.48;102198.97;5053649;28;45267;-76
2024/01/08 12:56:55;;;;;;;;;16.25;13.50;;;;;10.34;34.49;102189.38;5054920;28;45366;-76
2024/01/08 12:59:32;;;;;;;;;20.50;18.75;;;;;10.30;34.87;102194.81;5054625;28;45412;-76
2024/01/08 13:01:57;;;;;;;;;23.25;16.50;;;;;10.27;34.38;102182.38;5054741;28;45334;-75
2024/01/08 13:04:22;;;;;;;;;18.25;17.25;;;;;10.33;34.87;102198.31;5051486;28;45640;-75
2024/01/08 13:06:48;;;;;;;;;21.00;18.75;;;;;10.18;35.04;102174.53;5046736;28;45410;-75
2024/01/08 13:09:17;;;;;;;;;15.75;13.50;;;;;10.36;35.23;102187.53;5055355;28;45415;-75
2024/01/08 13:11:43;;;;;;;;;20.75;18.50;;;;;10.47;34.86;102196.22;5056834;28;45358;-74
2024/01/08 13:14:12;;;;;;;;;16.75;16.75;;;;;10.49;34.89;102189.03;5057147;28;45447;-81
2024/01/08 13:16:42;;;;;;;;;18.25;18.25;;;;;10.53;34.81;102188.06;5057305;28;45354;-73
2024/01/08 13:19:07;;;;;;;;;20.50;17.00;;;;;10.42;34.38;102178.47;5056796;28;45431;-77
2024/01/08 13:21:40;;;;;;;;;23.75;16.50;;;;;10.43;34.83;102172.19;5059545;28;45236;-77
2024/01/08 13:24:12;;;;;;;;;18.25;17.50;;;;;10.47;34.79;102179.25;5063748;28;45300;-76
2024/01/08 13:26:41;;;;;;;;;18.50;18.25;;;;;10.59;34.43;102195.94;5054808;28;45347;-78
2024/01/08 13:29:07;;;;;;;;;23.25;16.75;;;;;10.61;34.68;102195.91;5053701;28;45374;-77
2024/01/08 13:31:33;;;;;;;;;25.25;20.75;;;;;10.58;34.70;102185.25;5054306;28;45391;-78
2024/01/08 13:33:59;;;;;;;;;23.75;18.50;;;;;10.48;34.91;102173.84;5054527;28;45496;-78
2024/01/08 13:36:24;;;;;;;;;19.75;19.75;;;;;10.63;34.33;102182.47;5054482;28;45275;-75
2024/01/08 13:38:50;;;;;;;;;16.75;16.75;;;;;10.58;34.69;102161.13;5033078;28;46970;-78
2024/01/08 13:41:15;;;;;;;;;21.75;18.00;;;;;10.51;34.25;102146.09;5047235;28;52117;-78
2024/01/08 13:43:41;;;;;;;;;20.00;19.75;;;;;10.59;33.84;102152.16;5054188;28;45458;-78
2024/01/08 13:46:09;;;;;;;;;18.75;16.50;;;;;10.64;33.63;102171.69;5054013;28;45617;-77
2024/01/08 13:48:35;;;;;;;;;19.25;15.50;;;;;10.55;33.90;102172.78;5054195;28;46230;-76
2024/01/08 13:51:00;;;;;;;;;20.75;18.50;;;;;10.50;34.14;102163.97;5054567;28;45344;-77
2024/01/08 13:53:26;;;;;;;;;16.25;16.25;;;;;10.43;33.67;102164.16;5053860;28;45316;-77
2024/01/08 13:55:52;;;;;;;;;21.25;17.50;;;;;10.37;34.02;102161.63;5054088;28;45215;-76
2024/01/08 13:58:17;;;;;;;;;17.75;17.25;;;;;10.40;33.74;102165.09;5059418;28;46214;-78
2024/01/08 14:00:43;;;;;;;;;17.75;11.00;;;;;10.29;33.98;102135.00;5043799;28;49456;-76
2024/01/08 14:03:09;;;;;;;;;17.75;16.00;;;;;10.41;33.55;102147.22;5054022;28;45314;-76
2024/01/08 14:05:36;;;;;;;;;18.00;14.50;;;;;10.35;34.05;102140.19;5056829;28;45220;-76
2024/01/08 14:08:01;;;;;;;;;15.25;14.25;;;;;10.39;33.65;102139.19;5056090;28;48364;-76
2024/01/08 14:10:27;;;;;;;;;14.00;14.00;;;;;10.51;32.93;102154.13;5058719;28;45255;-77
2024/01/08 14:12:52;;;;;;;;;18.25;13.25;;;;;10.54;33.18;102157.66;5058562;28;45526;-78
2024/01/08 14:15:18;;;;;;;;;17.50;16.25;;;;;10.54;33.24;102168.38;5058004;28;45436;-75
2024/01/08 14:17:43;;;;;;;;;14.50;14.50;;;;;10.54;33.21;102165.69;5057727;28;45846;-77
2024/01/08 14:20:10;;;;;;;;;16.00;15.25;;;;;10.44;33.45;102153.41;5057561;28;45337;-74
2024/01/08 14:22:37;;;;;;;;;13.25;12.25;;;;;10.34;33.36;102135.75;5057635;28;45457;-78
2024/01/08 14:25:02;;;;;;;;;18.25;17.25;;;;;10.53;33.17;102168.41;5057381;28;45473;-75
2024/01/08 14:27:29;;;;;;;;;18.50;14.00;;;;;10.35;33.13;102160.75;5056808;28;45947;-77
2024/01/08 14:29:55;;;;;;;;;16.00;14.00;;;;;10.37;33.33;102167.88;5039194;28;45347;-76
2024/01/08 14:32:20;;;;;;;;;18.50;15.00;;;;;10.43;33.07;102169.50;5056936;28;45517;-77
2024/01/08 14:34:46;;;;;;;;;16.25;16.25;;;;;10.48;32.74;102162.25;5057183;28;45343;-77
2024/01/08 14:37:11;;;;;;;;;15.25;12.75;;;;;10.44;33.10;102173.97;5056988;28;45922;-77
2024/01/08 14:39:36;;;;;;;;;19.50;14.75;;;;;10.48;33.27;102156.88;5035843;28;45285;-77
2024/01/08 14:42:03;;;;;;;;;24.25;20.75;;;;;10.49;32.74;102151.47;5056187;28;45386;-77
2024/01/08 14:44:29;;;;;;;;;12.75;12.75;;;;;10.57;32.74;102159.34;5056881;28;45410;-76
2024/01/08 14:46:55;;;;;;;;;13.00;13.00;;;;;10.53;32.68;102145.16;5056705;28;45529;-77
2024/01/08 14:49:20;;;;;;;;;14.50;13.00;;;;;10.63;32.78;102164.59;5056877;28;45460;-76
2024/01/08 14:51:45;;;;;;;;;13.25;13.25;;;;;10.45;32.92;102131.03;5056940;28;45283;-79
2024/01/08 14:54:11;;;;;;;;;12.25;11.75;;;;;10.60;32.96;102172.69;5056514;28;51977;-77
2024/01/08 14:56:36;;;;;;;;;16.50;12.75;;;;;10.44;33.59;102156.09;5056485;28;46125;-76
2024/01/08 14:59:03;;;;;;;;;17.75;17.75;;;;;10.55;33.61;102171.91;5056813;28;45336;-76
2024/01/08 15:01:28;;;;;;;;;20.75;19.25;;;;;10.52;34.15;102170.19;5056385;28;45348;-76
2024/01/08 15:03:54;;;;;;;;;21.25;19.25;;;;;10.38;34.11;102140.13;5056574;28;45486;-77
2024/01/08 15:06:19;;;;;;;;;17.25;17.25;;;;;10.45;34.20;102163.22;5037943;28;48136;-75
2024/01/08 15:08:45;;;;;;;;;22.50;17.25;;;;;10.48;34.42;102164.91;5056200;28;45364;-77
2024/01/08 15:11:10;;;;;;;;;17.75;16.75;;;;;10.43;34.60;102148.06;5038557;28;45536;-77
2024/01/08 15:13:36;;;;;;;;;25.00;20.75;;;;;10.54;34.79;102168.38;5056392;28;45564;-76
2024/01/08 15:16:01;;;;;;;;;26.75;24.25;;;;;10.56;35.00;102174.56;5055386;28;45918;-77
2024/01/08 15:18:26;;;;;;;;;24.50;21.25;;;;;10.59;34.68;102171.81;5056605;28;45393;-76
2024/01/08 15:20:52;;;;;;;;;18.25;16.25;;;;;10.43;34.73;102145.38;5055809;28;45447;-77
2024/01/08 15:23:18;;;;;;;;;18.00;18.00;;;;;10.63;34.40;102178.84;5067292;28;45732;-78
2024/01/08 15:25:43;;;;;;;;;25.25;20.00;;;;;10.63;34.88;102174.44;5056045;28;45706;-75
2024/01/08 15:28:09;;;;;;;;;21.75;19.25;;;;;10.55;34.73;102162.06;5056590;28;45434;-76
2024/01/08 15:30:34;;;;;;;;;20.50;20.50;;;;;10.62;35.10;102178.91;5056737;28;45303;-78
2024/01/08 15:32:59;;;;;;;;;26.25;22.00;;;;;10.65;34.54;102180.63;5034608;28;46250;-78
2024/01/08 15:35:25;;;;;;;;;25.75;22.25;;;;;10.72;34.85;102188.47;5053956;28;46046;-76
2024/01/08 15:37:51;;;;;;;;;23.50;19.25;;;;;10.49;35.19;102164.88;5056343;28;45325;-78
2024/01/08 15:40:16;;;;;;;;;24.25;22.00;;;;;10.58;34.64;102183.44;5053672;28;45534;-76
2024/01/08 15:42:42;;;;;;;;;25.00;23.25;;;;;10.44;34.82;102172.16;5056216;28;45542;-77
2024/01/08 15:45:07;;;;;;;;;21.25;18.50;;;;;10.55;34.49;102199.59;5056183;28;46501;-79
2024/01/08 15:47:33;;;;;;;;;18.75;18.75;;;;;10.46;34.25;102196.28;5056270;28;45299;-78
2024/01/08 15:49:58;;;;;;;;;28.50;24.50;;;;;10.43;34.38;102205.25;5055738;28;45237;-76
2024/01/08 15:52:24;;;;;;;;;19.75;17.50;;;;;10.20;34.86;102168.25;5056140;28;45219;-78
2024/01/08 15:54:49;;;;;;;;;17.75;17.75;;;;;10.33;34.83;102213.53;5055443;28;52596;-77
2024/01/08 15:57:14;;;;;;;;;20.50;17.00;;;;;10.20;34.87;102188.78;5054393;28;53878;-76
2024/01/08 15:59:42;;;;;;;;;22.50;20.75;;;;;10.29;34.81;102210.03;5055621;28;45401;-77
2024/01/08 16:02:08;;;;;;;;;12.75;12.00;;;;;10.24;35.13;102207.44;5054117;28;46283;-77
2024/01/08 16:04:34;;;;;;;;;31.50;27.50;;;;;10.27;35.31;102201.16;5055342;28;46251;-80
2024/01/08 16:07:03;;;;;;;;;25.75;21.75;;;;;10.24;35.21;102202.09;5055739;28;45395;-80
2024/01/08 16:09:29;;;;;;;;;22.25;20.75;;;;;10.18;34.81;102202.22;5055380;28;45489;-78
2024/01/08 16:11:54;;;;;;;;;24.50;24.25;;;;;9.99;35.44;102170.44;5055563;28;45386;-77
2024/01/08 16:14:20;;;;;;;;;24.25;21.25;;;;;10.13;35.78;102196.03;5054924;28;45335;-77
2024/01/08 16:16:45;;;;;;;;;26.75;26.00;;;;;10.24;35.58;102210.13;5056086;28;45423;-75
2024/01/08 16:19:10;;;;;;;;;23.00;21.00;;;;;10.13;35.33;102197.81;5055849;28;45331;-79
2024/01/08 16:21:36;;;;;;;;;25.00;21.50;;;;;10.08;35.07;102200.59;5055939;28;45333;-78
2024/01/08 16:24:01;;;;;;;;;26.75;22.25;;;;;9.92;34.89;102175.03;5055591;28;45497;-79
2024/01/08 16:26:27;;;;;;;;;24.25;23.75;;;;;10.07;35.23;102196.16;5056581;28;45379;-78
2024/01/08 16:28:52;;;;;;;;;25.00;23.50;;;;;10.10;35.53;102201.47;5048118;28;45342;-74
2024/01/08 16:31:18;;;;;;;;;26.25;22.25;;;;;10.02;35.06;102192.72;5055141;28;45434;-77
2024/01/08 16:33:43;;;;;;;;;22.00;21.00;;;;;9.98;34.99;102203.50;5055007;28;46118;-77
2024/01/08 16:36:08;;;;;;;;;18.50;18.25;;;;;9.97;35.07;102191.91;5054653;28;45681;-77
2024/01/08 16:38:34;;;;;;;;;20.00;20.00;;;;;10.07;35.25;102203.31;5044629;28;45316;-77